San Diego, CA

2:17 AM PST on February 23, 2017 (GMT -0800)
Southwestern Yacht Club | | Change Station
Active Advisory: High Surf Advisory Active Notice: High Surf Advisory

Elev 10 ft 32.71 °N, 117.23 °W | Updated 29 seconds ago

Mostly Cloudy
Mostly Cloudy
57.4 °F
Feels Like 57.4 °F
N
8.7
Wind Variable Wind from WSW
Gusts 9.8 mph

Today
High -- | Low -- °F
--% Chance of Precip.
Yesterday
High -- | Low -- °F
Precip. -- in
Pressure 30.06 in
Visibility 10.0 miles
Clouds Few 2300 ft
Scattered Clouds 2800 ft
Mostly Cloudy 3700 ft
Dew Point 48.9 °F
Humidity 73%
Rainfall 0.00 in
Snow Depth Not available.
6:23 AM 5:41 PM
Waning Crescent, 11% visible
METAR KSAN 230951Z 30007KT 10SM FEW023 SCT028 BKN037 14/08 A3006 RMK AO2 SLP180 T01390083
Pressure 30.06 in
Visibility 10.0 miles
Clouds Few 2300 ft
Scattered Clouds 2800 ft
Mostly Cloudy 3700 ft
Dew Point 48.9 °F
Humidity 73%
Rainfall 0.00 in
Snow Depth Not available.
6:23 AM 5:41 PM
Waning Crescent, 11% visible
METAR KSAN 230951Z 30007KT 10SM FEW023 SCT028 BKN037 14/08 A3006 RMK AO2 SLP180 T01390083

Get Your Daily Forecast Email!

Thanks for signing up!

Be on the lookout for a verification email in your inbox.

You'll start receiving the daily forecast at 8 AM.

×

10-Day Weather Forecast

Almanac

Astronomy

Feb. 23, 2017 Rise Set
Actual Time
Civil Twilight
Nautical Twilight
Astronomical Twilight
Moon
Length of Visible Light
Length of Day
Tomorrow will be .
, % of the Moon is Illuminated

Today's Extremes

State Highs State Lows

Community

WunderPhotos

Upload Photos

1,962,540 photos uploaded!

WunderBlog® & News

Nearby

Air Quality

  Air Quality AQ Index Pollutant
Not available.

Snow Depth

Station Depth Elevation

Earthquake Activity

City Distance Mag. Time & Date
Minimum magnitude displayed is 2.5.

Coastal Water Temperatures

Place Temperature

Stations

Nearby Weather Stations

Station Location Temp. Windchill Dew Point Humidity Wind Precip. Elev Updated Type
                   

Watches & Warnings

High Surf Advisory
Issued: 9:34 PM PST Feb. 22, 2017 – National Weather Service

... High surf advisory remains in effect until 2 am PST Friday...

* surf... 5 to 8 ft with local sets to 10 ft. Swell and surf will
slowly lower Thursday night into Friday.

* Timing... through Thursday night with the highest surf expected
tonight and Thursday morning.

* Tides... high tide near 5.3 ft at 645 am Thursday.

* Impacts... strong rip currents and dangerous swimming conditions.
Sneaker waves may pose a hazard to anyone on exposed rocks or
jetties. Minor flooding possible at susceptible low lying beach
areas during high tide.

Precautionary/preparedness actions...

A high surf advisory means that high surf will affect area
beaches creating potentially hazardous conditions. Anyone
visiting local beaches should use caution and heed the advice of
lifeguards.



Albright